createdAt,value
2018-02-27T00:00:51.546Z,21.45
2018-02-27T00:03:20.426Z,45.35
2018-02-27T00:05:49.283Z,27.85
2018-02-27T00:08:18.092Z,27.62
2018-02-27T00:10:46.989Z,16.98
2018-02-27T00:13:15.836Z,12.15
2018-02-27T00:15:45.484Z,15.18
2018-02-27T00:18:14.362Z,16.87
2018-02-27T00:20:43.212Z,22.25
2018-02-27T00:23:12.122Z,20.77
2018-02-27T00:25:40.970Z,24.95
2018-02-27T00:28:09.882Z,20.90
2018-02-27T00:30:38.757Z,16.25
2018-02-27T00:33:07.614Z,15.63
2018-02-27T00:35:36.507Z,17.10
2018-02-27T00:38:05.356Z,13.15
2018-02-27T00:40:34.227Z,15.25
2018-02-27T00:43:03.073Z,12.80
2018-02-27T00:45:32.700Z,13.45
2018-02-27T00:48:01.570Z,14.82
2018-02-27T00:50:30.498Z,14.00
2018-02-27T00:52:59.602Z,12.32
2018-02-27T00:55:28.444Z,8.68
2018-02-27T00:57:57.238Z,13.07
2018-02-27T01:00:26.111Z,11.68
2018-02-27T01:02:54.969Z,11.95
2018-02-27T01:05:23.887Z,11.95
2018-02-27T01:07:52.775Z,10.10
2018-02-27T01:10:21.599Z,13.23
2018-02-27T01:12:51.012Z,14.45
2018-02-27T01:15:19.901Z,10.32
2018-02-27T01:17:48.790Z,12.73
2018-02-27T01:20:17.662Z,11.07
2018-02-27T01:22:46.511Z,8.80
2018-02-27T01:25:15.410Z,11.77
2018-02-27T01:27:44.308Z,11.07
2018-02-27T01:30:13.190Z,7.10
2018-02-27T01:32:42.055Z,8.00
2018-02-27T01:35:14.283Z,10.32
2018-02-27T01:37:43.161Z,8.85
2018-02-27T01:40:11.965Z,8.82
2018-02-27T01:42:40.883Z,8.43
2018-02-27T01:45:09.732Z,8.60
2018-02-27T01:47:38.605Z,6.68
2018-02-27T01:50:07.459Z,9.52
2018-02-27T01:52:36.328Z,7.50
2018-02-27T01:55:05.225Z,6.60
2018-02-27T01:57:34.068Z,5.87
2018-02-27T02:00:03.390Z,6.57
2018-02-27T02:02:32.238Z,8.55
2018-02-27T02:05:01.086Z,6.43
2018-02-27T02:07:29.952Z,5.37
2018-02-27T02:09:59.645Z,5.97
2018-02-27T02:12:28.522Z,7.05
2018-02-27T02:14:57.397Z,6.57
2018-02-27T02:17:26.248Z,7.15
2018-02-27T02:19:55.134Z,6.47
2018-02-27T02:22:24.746Z,5.47
2018-02-27T02:24:54.361Z,6.35
2018-02-27T02:27:23.981Z,9.45
2018-02-27T02:29:52.816Z,5.00
2018-02-27T02:32:21.660Z,6.45
2018-02-27T02:34:51.261Z,6.00
2018-02-27T02:37:20.862Z,5.00
2018-02-27T02:39:50.518Z,5.68
2018-02-27T02:42:26.324Z,7.07
2018-02-27T02:44:55.161Z,6.62
2018-02-27T02:47:24.045Z,6.65
2018-02-27T02:49:52.939Z,5.22
2018-02-27T02:52:21.838Z,8.02
2018-02-27T02:54:50.658Z,8.02
2018-02-27T02:57:19.496Z,8.25
2018-02-27T02:59:49.128Z,7.75
2018-02-27T03:02:17.982Z,6.80
2018-02-27T03:04:46.820Z,8.45
2018-02-27T03:07:15.683Z,8.88
2018-02-27T03:09:45.272Z,6.70
2018-02-27T03:12:14.144Z,8.98
2018-02-27T03:14:43.001Z,5.55
2018-02-27T03:17:11.845Z,6.50
2018-02-27T03:19:40.734Z,10.13
2018-02-27T03:22:09.584Z,5.75
2018-02-27T03:24:38.407Z,6.75
2018-02-27T03:27:07.350Z,6.80
2018-02-27T03:29:36.187Z,8.05
2018-02-27T03:32:05.048Z,5.05
2018-02-27T03:34:33.926Z,6.82
2018-02-27T03:37:02.794Z,8.27
2018-02-27T03:39:31.638Z,7.40
2018-02-27T03:42:00.464Z,6.75
2018-02-27T03:44:29.406Z,7.50
2018-02-27T03:46:58.259Z,6.95
2018-02-27T03:49:27.120Z,5.70
2018-02-27T03:51:56.017Z,7.10
2018-02-27T03:54:24.841Z,6.80
2018-02-27T03:56:54.448Z,8.35
2018-02-27T03:59:23.288Z,7.28
2018-02-27T04:01:52.157Z,8.23
2018-02-27T04:04:21.812Z,6.00
2018-02-27T04:06:50.614Z,8.60
2018-02-27T04:09:19.452Z,4.85
2018-02-27T04:11:49.067Z,8.93
2018-02-27T04:14:18.664Z,6.00
2018-02-27T04:16:47.504Z,6.87
2018-02-27T04:19:16.472Z,6.35
2018-02-27T04:21:46.082Z,6.22
2018-02-27T04:24:14.895Z,7.55
2018-02-27T04:26:43.794Z,6.55
2018-02-27T04:29:12.677Z,8.18
2018-02-27T04:31:41.528Z,6.32
2018-02-27T04:34:10.369Z,7.10
2018-02-27T04:36:39.319Z,7.12
2018-02-27T04:39:08.953Z,7.35
2018-02-27T04:41:37.814Z,7.35
2018-02-27T04:44:06.674Z,9.50
2018-02-27T04:46:35.564Z,7.03
2018-02-27T04:49:04.378Z,7.53
2018-02-27T04:51:33.214Z,7.97
2018-02-27T04:54:02.079Z,8.40
2018-02-27T04:56:30.912Z,9.95
2018-02-27T04:58:59.855Z,9.85
2018-02-27T05:01:28.725Z,7.12
2018-02-27T05:03:58.413Z,6.75
2018-02-27T05:06:29.222Z,7.22
2018-02-27T05:08:58.860Z,7.03
2018-02-27T05:11:27.755Z,10.52
2018-02-27T05:13:57.282Z,8.52
2018-02-27T05:16:27.060Z,6.00
2018-02-27T05:18:56.653Z,5.57
2018-02-27T05:21:49.663Z,8.98
2018-02-27T05:24:19.278Z,6.93
2018-02-27T05:26:48.174Z,8.65
2018-02-27T05:29:17.052Z,7.90
2018-02-27T05:31:45.854Z,10.77
2018-02-27T05:34:14.725Z,9.00
2018-02-27T05:36:43.609Z,9.45
2018-02-27T05:39:12.500Z,7.85
2018-02-27T05:41:41.348Z,8.48
2018-02-27T05:44:10.197Z,5.57
2018-02-27T05:46:39.077Z,7.45
2018-02-27T05:49:07.881Z,8.18
2018-02-27T05:51:36.747Z,7.70
2018-02-27T05:54:06.382Z,9.05
2018-02-27T05:56:35.238Z,7.60
2018-02-27T05:59:04.113Z,8.80
2018-02-27T06:01:32.801Z,10.15
2018-02-27T06:04:01.638Z,8.48
2018-02-27T06:06:30.496Z,9.18
2018-02-27T06:08:59.308Z,10.00
2018-02-27T06:11:28.914Z,8.73
2018-02-27T06:14:08.605Z,11.38
2018-02-27T06:16:37.460Z,11.40
2018-02-27T06:22:22.592Z,8.63
2018-02-27T06:24:51.436Z,8.88
2018-02-27T06:27:21.050Z,16.83
2018-02-27T06:29:50.728Z,12.95
2018-02-27T06:32:19.998Z,10.93
2018-02-27T06:34:48.858Z,11.07
2018-02-27T06:37:18.387Z,15.60
2018-02-27T06:39:47.402Z,16.80
2018-02-27T06:42:16.302Z,11.73
2018-02-27T06:44:48.970Z,19.48
2018-02-27T06:47:17.863Z,43.42
2018-02-27T06:49:53.951Z,13.75
2018-02-27T06:52:22.917Z,10.32
2018-02-27T06:55:01.160Z,14.13
2018-02-27T06:57:30.773Z,12.65
2018-02-27T06:59:59.639Z,10.45
2018-02-27T07:02:28.652Z,8.95
2018-02-27T07:04:57.468Z,13.85
2018-02-27T07:07:29.917Z,13.68
2018-02-27T07:09:59.016Z,14.07
2018-02-27T07:12:27.955Z,17.50
2018-02-27T07:14:57.696Z,16.95
2018-02-27T07:17:26.644Z,14.90
2018-02-27T07:22:59.026Z,19.00
2018-02-27T07:25:28.193Z,13.07
2018-02-27T07:27:57.032Z,13.48
2018-02-27T07:30:25.903Z,17.50
2018-02-27T07:32:54.763Z,15.40
2018-02-27T07:35:23.841Z,14.68
2018-02-27T07:37:53.577Z,17.80
2018-02-27T07:40:22.439Z,13.93
2018-02-27T07:42:52.059Z,14.73
2018-02-27T07:45:21.744Z,17.30
2018-02-27T07:47:51.427Z,15.32
2018-02-27T07:50:20.317Z,19.45
2018-02-27T07:52:49.190Z,20.58
2018-02-27T07:55:18.037Z,16.87
2018-02-27T07:57:46.959Z,17.48
2018-02-27T08:00:15.857Z,15.38
2018-02-27T08:02:45.518Z,18.92
2018-02-27T08:05:14.446Z,21.00
2018-02-27T08:07:43.552Z,20.23
2018-02-27T08:10:13.164Z,13.82
2018-02-27T08:12:42.573Z,19.30
2018-02-27T08:15:11.488Z,19.48
2018-02-27T08:17:40.374Z,14.32
2018-02-27T08:20:08.937Z,24.30
2018-02-27T08:22:38.613Z,20.20
2018-02-27T08:25:07.460Z,16.15
2018-02-27T08:27:36.310Z,15.90
2018-02-27T08:30:05.226Z,16.65
2018-02-27T08:32:34.069Z,19.25
2018-02-27T08:35:02.653Z,23.55
2018-02-27T08:37:31.512Z,23.80
2018-02-27T08:40:00.401Z,23.02
2018-02-27T08:42:29.243Z,25.30
2018-02-27T08:44:58.067Z,19.50
2018-02-27T08:47:26.986Z,17.90
2018-02-27T08:49:56.039Z,16.02
2018-02-27T08:52:24.967Z,18.37
2018-02-27T08:54:54.908Z,20.37
2018-02-27T08:57:23.624Z,18.58
2018-02-27T08:59:52.486Z,18.23
2018-02-27T09:02:21.343Z,19.90
2018-02-27T09:04:50.288Z,20.77
2018-02-27T09:07:19.183Z,20.62
2018-02-27T09:09:48.045Z,17.30
2018-02-27T09:12:16.962Z,18.67
2018-02-27T09:14:45.859Z,19.42
2018-02-27T09:17:15.963Z,22.48
2018-02-27T09:19:44.863Z,15.73
2018-02-27T09:22:13.721Z,18.55
2018-02-27T09:24:42.605Z,19.33
2018-02-27T09:27:11.537Z,17.95
2018-02-27T09:29:40.412Z,19.33
2018-02-27T09:32:09.246Z,19.95
2018-02-27T09:34:38.167Z,20.70
2018-02-27T09:37:07.045Z,21.02
2018-02-27T09:39:35.906Z,21.23
2018-02-27T09:42:04.832Z,19.33
2018-02-27T09:44:33.826Z,16.58
2018-02-27T09:47:02.907Z,16.02
2018-02-27T09:49:31.909Z,23.33
2018-02-27T09:52:00.825Z,21.02
2018-02-27T09:54:29.689Z,16.45
2018-02-27T09:56:58.564Z,18.67
2018-02-27T09:59:27.496Z,16.15
2018-02-27T10:01:56.452Z,20.15
2018-02-27T10:04:25.350Z,22.27
2018-02-27T10:06:54.309Z,17.20
2018-02-27T10:09:23.216Z,18.75
2018-02-27T10:11:52.849Z,16.87
2018-02-27T10:14:21.741Z,16.33
2018-02-27T10:16:50.454Z,17.37
2018-02-27T10:19:19.370Z,18.20
2018-02-27T10:21:48.321Z,15.68
2018-02-27T10:24:17.248Z,21.77
2018-02-27T10:26:46.159Z,15.52
2018-02-27T10:29:14.750Z,18.00
2018-02-27T10:31:43.694Z,15.77
2018-02-27T10:34:12.546Z,18.70
2018-02-27T10:36:41.611Z,18.08
2018-02-27T10:39:11.544Z,15.60
2018-02-27T10:41:40.527Z,17.65
2018-02-27T10:44:10.338Z,16.95
2018-02-27T10:46:39.280Z,15.15
2018-02-27T10:49:08.317Z,16.25
2018-02-27T10:51:37.280Z,12.37
2018-02-27T10:54:06.215Z,18.85
2018-02-27T10:56:35.134Z,14.07
2018-02-27T10:59:04.062Z,15.93
2018-02-27T11:01:33.663Z,18.25
2018-02-27T11:04:02.596Z,15.63
2018-02-27T11:06:31.457Z,13.48
2018-02-27T11:09:00.298Z,16.87
2018-02-27T11:11:29.126Z,18.73
2018-02-27T11:13:58.037Z,19.75
2018-02-27T11:16:27.862Z,17.20
2018-02-27T11:19:02.960Z,19.52
2018-02-27T11:21:32.602Z,17.77
2018-02-27T11:24:15.514Z,14.70
2018-02-27T11:26:45.157Z,11.60
2018-02-27T11:29:13.992Z,15.55
2018-02-27T11:31:42.886Z,15.05
2018-02-27T11:34:11.839Z,15.75
2018-02-27T11:36:40.695Z,10.80
2018-02-27T11:39:10.344Z,17.60
2018-02-27T11:41:39.193Z,13.55
2018-02-27T11:44:08.140Z,17.05
2018-02-27T11:46:36.977Z,14.02
2018-02-27T11:49:06.638Z,18.70
2018-02-27T11:51:35.591Z,16.52
2018-02-27T11:54:04.473Z,13.40
2018-02-27T11:56:33.041Z,16.73
2018-02-27T11:59:01.607Z,12.03
2018-02-27T12:01:30.189Z,14.00
2018-02-27T12:04:02.208Z,17.87
2018-02-27T12:06:31.084Z,21.20
2018-02-27T12:08:59.684Z,15.47
2018-02-27T12:11:28.364Z,23.40
2018-02-27T12:13:56.931Z,14.17
2018-02-27T12:16:25.458Z,12.70
2018-02-27T12:18:54.011Z,13.90
2018-02-27T12:21:23.474Z,16.67
2018-02-27T12:23:52.792Z,14.77
2018-02-27T12:26:21.457Z,15.60
2018-02-27T12:28:50.023Z,12.90
2018-02-27T12:31:18.629Z,13.97
2018-02-27T12:33:47.349Z,11.83
2018-02-27T12:36:15.903Z,15.23
2018-02-27T12:38:44.565Z,11.10
2018-02-27T12:41:13.129Z,13.77
2018-02-27T12:43:41.894Z,12.03
2018-02-27T12:46:11.270Z,13.40
2018-02-27T12:48:39.845Z,14.83
2018-02-27T12:51:08.464Z,13.90
2018-02-27T12:53:37.009Z,11.83
2018-02-27T12:56:05.624Z,10.87
2018-02-27T12:58:34.227Z,13.17
2018-02-27T13:01:02.773Z,14.73
2018-02-27T13:03:31.367Z,10.57
2018-02-27T13:05:59.939Z,11.17
2018-02-27T13:08:28.589Z,12.80
2018-02-27T13:10:57.929Z,17.13
2018-02-27T13:13:26.540Z,16.67
2018-02-27T13:15:55.104Z,12.63
2018-02-27T13:18:23.743Z,10.63
2018-02-27T13:20:52.329Z,10.33
2018-02-27T13:23:20.915Z,9.93
2018-02-27T13:25:49.512Z,11.10
2018-02-27T13:28:18.114Z,10.53
2018-02-27T13:30:47.500Z,11.70
2018-02-27T13:33:16.079Z,9.73
2018-02-27T13:35:44.775Z,10.20
2018-02-27T13:38:16.810Z,14.67
2018-02-27T13:40:46.545Z,10.80
2018-02-27T13:43:15.310Z,12.03
2018-02-27T13:45:43.943Z,11.10
2018-02-27T13:48:12.306Z,15.50
2018-02-27T13:50:41.953Z,13.60
2018-02-27T13:53:10.522Z,19.20
2018-02-27T13:55:39.218Z,11.73
2018-02-27T13:58:07.902Z,12.17
2018-02-27T14:00:36.461Z,13.57
2018-02-27T14:03:05.061Z,13.73
2018-02-27T14:05:33.653Z,11.50
2018-02-27T14:08:02.224Z,9.90
2018-02-27T14:10:30.846Z,9.63
2018-02-27T14:12:59.418Z,10.53
2018-02-27T14:15:28.046Z,10.03
2018-02-27T14:17:56.643Z,10.57
2018-02-27T14:20:25.253Z,10.07
2018-02-27T14:22:53.913Z,11.37
2018-02-27T14:25:22.511Z,12.30
2018-02-27T14:27:51.087Z,9.77
2018-02-27T14:30:19.577Z,12.80
2018-02-27T14:32:48.091Z,11.70
2018-02-27T14:35:16.655Z,10.60
2018-02-27T14:37:45.260Z,12.27
2018-02-27T14:40:13.822Z,9.30
2018-02-27T14:42:42.448Z,10.03
2018-02-27T14:45:11.119Z,10.20
2018-02-27T14:47:39.728Z,11.73
2018-02-27T14:50:09.104Z,9.10
2018-02-27T14:52:37.929Z,12.80
2018-02-27T14:55:06.546Z,9.93
2018-02-27T14:57:35.397Z,10.88
2018-02-27T15:00:03.696Z,11.55
2018-02-27T15:02:36.071Z,9.67
2018-02-27T15:05:04.997Z,10.70
2018-02-27T15:07:34.049Z,20.10
2018-02-27T15:10:02.893Z,11.52
2018-02-27T15:12:31.796Z,9.45
2018-02-27T15:15:01.749Z,9.27
2018-02-27T15:17:30.622Z,10.18
2018-02-27T15:19:59.534Z,12.43
2018-02-27T15:22:28.427Z,12.93
2018-02-27T15:24:57.337Z,10.80
2018-02-27T15:27:26.237Z,11.52
2018-02-27T15:29:55.117Z,15.50
2018-02-27T15:32:24.034Z,9.95
2018-02-27T15:34:53.283Z,13.65
2018-02-27T15:37:22.214Z,12.25
2018-02-27T15:39:51.121Z,10.68
2018-02-27T15:42:20.022Z,13.62
2018-02-27T15:44:49.029Z,11.88
2018-02-27T15:47:17.882Z,13.40
2018-02-27T15:49:46.905Z,10.55
2018-02-27T15:52:15.788Z,11.35
2018-02-27T15:54:44.675Z,11.15
2018-02-27T15:57:14.520Z,12.73
2018-02-27T15:59:43.396Z,14.23
2018-02-27T16:02:12.301Z,14.77
2018-02-27T16:04:41.212Z,16.27
2018-02-27T16:07:10.105Z,14.80
2018-02-27T16:09:38.981Z,13.50
2018-02-27T16:12:07.842Z,13.43
2018-02-27T16:14:36.924Z,10.23
2018-02-27T16:17:05.814Z,18.90
2018-02-27T16:19:34.707Z,15.52
2018-02-27T16:22:03.573Z,18.92
2018-02-27T16:24:32.433Z,13.10
2018-02-27T16:27:01.426Z,18.67
2018-02-27T16:29:30.302Z,14.02
2018-02-27T16:31:59.185Z,13.62
2018-02-27T16:34:28.105Z,11.80
2018-02-27T16:36:57.141Z,10.93
2018-02-27T16:39:26.010Z,17.00
2018-02-27T16:41:54.952Z,11.38
2018-02-27T16:44:24.035Z,12.88
2018-02-27T16:46:52.969Z,11.20
2018-02-27T16:49:21.839Z,10.57
2018-02-27T16:51:50.702Z,11.80
2018-02-27T16:54:19.542Z,13.88
2018-02-27T16:56:48.420Z,14.15
2018-02-27T16:59:17.302Z,10.90
2018-02-27T17:01:46.149Z,13.80
2018-02-27T17:04:14.996Z,15.80
2018-02-27T17:06:43.572Z,14.00
2018-02-27T17:09:12.436Z,12.02
2018-02-27T17:11:41.336Z,13.48
2018-02-27T17:14:10.207Z,11.88
2018-02-27T17:16:39.135Z,14.25
2018-02-27T17:19:08.009Z,18.17
2018-02-27T17:21:36.888Z,16.25
2018-02-27T17:24:05.807Z,23.05
2018-02-27T17:26:34.662Z,21.08
2018-02-27T17:29:03.576Z,17.12
2018-02-27T17:31:32.432Z,21.10
2018-02-27T17:34:01.271Z,17.83
2018-02-27T17:36:30.368Z,13.80
2018-02-27T17:38:59.198Z,42.17
2018-02-27T17:41:28.103Z,19.27
2018-02-27T17:43:56.917Z,30.40
2018-02-27T17:46:26.588Z,15.68
2018-02-27T17:48:55.558Z,11.15
2018-02-27T17:51:24.418Z,11.70
2018-02-27T17:53:53.362Z,9.40
2018-02-27T17:56:22.221Z,12.15
2018-02-27T17:58:51.074Z,10.68
2018-02-27T18:01:19.973Z,13.05
2018-02-27T18:03:48.839Z,12.52
2018-02-27T18:06:17.806Z,14.77
2018-02-27T18:08:46.669Z,11.93
2018-02-27T18:11:16.348Z,16.02
2018-02-27T18:13:45.218Z,14.52
2018-02-27T18:16:14.179Z,13.75
2018-02-27T18:18:46.880Z,14.82
2018-02-27T18:21:15.764Z,14.87
2018-02-27T18:23:44.629Z,15.18
2018-02-27T18:26:13.481Z,13.60
2018-02-27T18:28:42.434Z,19.87
2018-02-27T18:31:12.074Z,20.42
2018-02-27T18:33:47.440Z,18.90
2018-02-27T18:36:16.832Z,47.05
2018-02-27T18:38:48.596Z,31.02
2018-02-27T18:41:17.521Z,52.17
2018-02-27T18:43:46.512Z,37.20
2018-02-27T18:46:15.569Z,35.25
2018-02-27T18:48:44.667Z,47.05
2018-02-27T18:51:13.579Z,19.55
2018-02-27T18:53:42.444Z,14.13
2018-02-27T18:56:11.317Z,13.32
2018-02-27T18:58:40.939Z,16.62
2018-02-27T19:01:09.879Z,14.85
2018-02-27T19:03:38.734Z,32.35
2018-02-27T19:06:07.806Z,22.37
2018-02-27T19:08:37.284Z,21.25
2018-02-27T19:11:06.179Z,22.52
2018-02-27T19:13:35.107Z,33.88
2018-02-27T19:16:04.976Z,33.53
2018-02-27T19:18:33.845Z,19.70
2018-02-27T19:21:02.737Z,39.58
2018-02-27T19:23:31.568Z,28.67
2018-02-27T19:26:00.445Z,20.88
2018-02-27T19:28:29.333Z,22.83
2018-02-27T19:31:02.073Z,35.25
2018-02-27T19:33:31.702Z,27.60
2018-02-27T19:36:02.645Z,67.53
2018-02-27T19:38:33.891Z,23.35
2018-02-27T19:41:02.797Z,19.62
2018-02-27T19:43:31.653Z,30.30
2018-02-27T19:46:02.270Z,28.92
2018-02-27T19:48:32.402Z,21.15
2018-02-27T19:51:01.298Z,17.83
2018-02-27T19:53:30.963Z,31.08
2018-02-27T19:55:59.862Z,31.62
2018-02-27T19:58:28.760Z,21.75
2018-02-27T20:00:57.601Z,26.08
2018-02-27T20:03:27.201Z,17.50
2018-02-27T20:05:56.092Z,19.37
2018-02-27T20:08:31.274Z,18.50
2018-02-27T20:11:00.204Z,19.23
2018-02-27T20:13:29.418Z,18.83
2018-02-27T20:15:58.287Z,16.85
2018-02-27T20:18:27.168Z,14.07
2018-02-27T20:20:56.050Z,14.60
2018-02-27T20:23:30.338Z,13.13
2018-02-27T20:25:59.973Z,14.25
2018-02-27T20:28:34.255Z,12.13
2018-02-27T20:31:03.089Z,14.50
2018-02-27T20:33:32.016Z,31.83
2018-02-27T20:36:00.917Z,34.88
2018-02-27T20:38:42.672Z,36.80
2018-02-27T20:41:11.579Z,28.77
2018-02-27T20:44:00.289Z,17.02
2018-02-27T20:46:29.990Z,15.85
2018-02-27T20:48:58.945Z,18.77
2018-02-27T20:51:27.804Z,19.25
2018-02-27T20:53:57.488Z,20.10
2018-02-27T20:56:26.321Z,16.40
2018-02-27T20:58:59.829Z,23.67
2018-02-27T21:01:28.720Z,16.40
2018-02-27T21:03:57.584Z,17.65
2018-02-27T21:06:27.245Z,14.23
2018-02-27T21:08:56.075Z,14.77
2018-02-27T21:11:24.958Z,15.05
2018-02-27T21:13:53.840Z,17.50
2018-02-27T21:16:22.707Z,16.95
2018-02-27T21:18:51.688Z,18.65
2018-02-27T21:21:20.732Z,19.73
2018-02-27T21:23:49.752Z,18.17
2018-02-27T21:26:19.400Z,18.50
2018-02-27T21:28:48.328Z,20.58
2018-02-27T21:31:18.025Z,18.77
2018-02-27T21:33:47.199Z,16.05
2018-02-27T21:36:16.233Z,15.73
2018-02-27T21:38:45.132Z,18.52
2018-02-27T21:41:17.900Z,25.45
2018-02-27T21:43:46.780Z,34.40
2018-02-27T21:46:15.639Z,15.27
2018-02-27T21:48:45.689Z,16.52
2018-02-27T21:51:14.553Z,14.20
2018-02-27T21:53:43.581Z,11.18
2018-02-27T21:56:12.449Z,11.73
2018-02-27T21:58:41.290Z,11.00
2018-02-27T22:01:10.246Z,11.65
2018-02-27T22:03:39.690Z,15.23
2018-02-27T22:06:08.988Z,12.75
2018-02-27T22:08:37.873Z,12.32
2018-02-27T22:11:06.714Z,13.77
2018-02-27T22:13:36.367Z,14.82
2018-02-27T22:16:05.373Z,13.60
2018-02-27T22:18:34.318Z,10.30
2018-02-27T22:21:03.942Z,11.95
2018-02-27T22:23:32.805Z,30.58
2018-02-27T22:26:02.468Z,31.85
2018-02-27T22:28:42.840Z,50.65
2018-02-27T22:31:11.739Z,50.33
2018-02-27T22:33:40.584Z,44.78
2018-02-27T22:36:10.222Z,41.42
2018-02-27T22:38:40.213Z,47.05
2018-02-27T22:41:09.865Z,74.40
2018-02-27T22:43:38.817Z,61.17
2018-02-27T22:46:08.446Z,57.60
2018-02-27T22:48:37.293Z,75.50
2018-02-27T22:51:06.157Z,31.77
2018-02-27T22:53:35.049Z,24.85
2018-02-27T22:56:03.936Z,44.47
2018-02-27T22:58:32.811Z,51.92
2018-02-27T23:01:01.696Z,37.30
2018-02-27T23:03:35.010Z,62.92
2018-02-27T23:06:03.850Z,30.40
2018-02-27T23:08:32.709Z,23.27
2018-02-27T23:11:01.583Z,39.75
2018-02-27T23:13:47.322Z,36.28
2018-02-27T23:16:16.198Z,44.20
2018-02-27T23:18:51.336Z,27.00
2018-02-27T23:21:20.235Z,42.28
2018-02-27T23:23:55.853Z,29.45
2018-02-27T23:26:35.022Z,27.85
2018-02-27T23:29:06.443Z,17.40
2018-02-27T23:31:35.500Z,16.58
2018-02-27T23:34:15.514Z,13.10
2018-02-27T23:36:44.387Z,16.10
2018-02-27T23:39:13.232Z,15.70
2018-02-27T23:41:42.144Z,16.35
2018-02-27T23:44:11.765Z,15.20
2018-02-27T23:46:40.664Z,14.05
2018-02-27T23:49:09.544Z,17.17
2018-02-27T23:51:39.174Z,16.85
2018-02-27T23:54:08.086Z,19.15
2018-02-27T23:56:38.017Z,14.60
2018-02-27T23:59:06.891Z,16.17
